sensor_id;sensor_type;location;lat;lon;timestamp;P1;durP1;ratioP1;P2;durP2;ratioP2
68072;SDS011;54862;51.502;7.446;2024-02-26T00:00:27;1.80;;;1.70;;
68072;SDS011;54862;51.502;7.446;2024-02-26T00:02:54;1.92;;;1.50;;
68072;SDS011;54862;51.502;7.446;2024-02-26T00:05:22;2.25;;;1.40;;
68072;SDS011;54862;51.502;7.446;2024-02-26T00:07:51;3.17;;;2.10;;
68072;SDS011;54862;51.502;7.446;2024-02-26T00:10:17;2.50;;;2.05;;
68072;SDS011;54862;51.502;7.446;2024-02-26T00:12:45;1.80;;;1.63;;
68072;SDS011;54862;51.502;7.446;2024-02-26T00:15:11;1.50;;;1.40;;
68072;SDS011;54862;51.502;7.446;2024-02-26T00:17:37;1.63;;;1.40;;
68072;SDS011;54862;51.502;7.446;2024-02-26T00:20:04;2.47;;;1.80;;
68072;SDS011;54862;51.502;7.446;2024-02-26T00:22:33;3.40;;;1.45;;
68072;SDS011;54862;51.502;7.446;2024-02-26T00:25:01;1.60;;;1.50;;
68072;SDS011;54862;51.502;7.446;2024-02-26T00:27:27;1.45;;;1.35;;
68072;SDS011;54862;51.502;7.446;2024-02-26T00:29:56;1.63;;;1.30;;
68072;SDS011;54862;51.502;7.446;2024-02-26T00:32:24;3.00;;;1.75;;
68072;SDS011;54862;51.502;7.446;2024-02-26T00:34:50;3.10;;;1.70;;
68072;SDS011;54862;51.502;7.446;2024-02-26T00:37:16;1.25;;;1.20;;
68072;SDS011;54862;51.502;7.446;2024-02-26T00:39:42;1.40;;;1.40;;
68072;SDS011;54862;51.502;7.446;2024-02-26T00:42:11;2.25;;;2.00;;
68072;SDS011;54862;51.502;7.446;2024-02-26T00:44:40;1.58;;;1.40;;
68072;SDS011;54862;51.502;7.446;2024-02-26T00:47:06;1.35;;;1.30;;
68072;SDS011;54862;51.502;7.446;2024-02-26T00:49:32;1.52;;;1.42;;
68072;SDS011;54862;51.502;7.446;2024-02-26T00:51:58;1.17;;;1.17;;
68072;SDS011;54862;51.502;7.446;2024-02-26T00:54:26;1.35;;;1.27;;
68072;SDS011;54862;51.502;7.446;2024-02-26T00:56:54;2.22;;;1.60;;
68072;SDS011;54862;51.502;7.446;2024-02-26T00:59:20;1.42;;;1.35;;
68072;SDS011;54862;51.502;7.446;2024-02-26T01:01:46;1.70;;;1.60;;
68072;SDS011;54862;51.502;7.446;2024-02-26T01:04:13;1.50;;;1.40;;
68072;SDS011;54862;51.502;7.446;2024-02-26T01:06:39;1.42;;;1.33;;
68072;SDS011;54862;51.502;7.446;2024-02-26T01:09:05;1.83;;;1.48;;
68072;SDS011;54862;51.502;7.446;2024-02-26T01:11:31;1.38;;;1.38;;
68072;SDS011;54862;51.502;7.446;2024-02-26T01:13:57;1.20;;;1.20;;
68072;SDS011;54862;51.502;7.446;2024-02-26T01:16:23;2.03;;;1.80;;
68072;SDS011;54862;51.502;7.446;2024-02-26T01:18:49;4.47;;;2.50;;
68072;SDS011;54862;51.502;7.446;2024-02-26T01:21:15;2.15;;;1.73;;
68072;SDS011;54862;51.502;7.446;2024-02-26T01:23:41;2.42;;;1.67;;
68072;SDS011;54862;51.502;7.446;2024-02-26T01:26:10;3.63;;;1.70;;
68072;SDS011;54862;51.502;7.446;2024-02-26T01:28:36;3.60;;;1.80;;
68072;SDS011;54862;51.502;7.446;2024-02-26T01:31:04;1.60;;;1.50;;
68072;SDS011;54862;51.502;7.446;2024-02-26T01:33:32;2.60;;;1.77;;
68072;SDS011;54862;51.502;7.446;2024-02-26T01:36:00;1.40;;;1.33;;
68072;SDS011;54862;51.502;7.446;2024-02-26T01:38:29;1.38;;;1.33;;
68072;SDS011;54862;51.502;7.446;2024-02-26T01:40:55;2.80;;;1.45;;
68072;SDS011;54862;51.502;7.446;2024-02-26T01:43:21;3.65;;;1.58;;
68072;SDS011;54862;51.502;7.446;2024-02-26T01:45:47;1.95;;;1.73;;
68072;SDS011;54862;51.502;7.446;2024-02-26T01:48:13;1.92;;;1.75;;
68072;SDS011;54862;51.502;7.446;2024-02-26T01:50:39;2.95;;;1.70;;
68072;SDS011;54862;51.502;7.446;2024-02-26T01:53:06;1.42;;;1.30;;
68072;SDS011;54862;51.502;7.446;2024-02-26T01:55:32;1.00;;;1.00;;
68072;SDS011;54862;51.502;7.446;2024-02-26T01:57:59;1.80;;;1.67;;
68072;SDS011;54862;51.502;7.446;2024-02-26T02:00:25;1.52;;;1.42;;
68072;SDS011;54862;51.502;7.446;2024-02-26T02:02:51;1.50;;;1.40;;
68072;SDS011;54862;51.502;7.446;2024-02-26T02:05:19;1.75;;;1.35;;
68072;SDS011;54862;51.502;7.446;2024-02-26T02:07:46;1.08;;;1.08;;
68072;SDS011;54862;51.502;7.446;2024-02-26T02:10:13;1.45;;;1.38;;
68072;SDS011;54862;51.502;7.446;2024-02-26T02:12:40;1.50;;;1.40;;
68072;SDS011;54862;51.502;7.446;2024-02-26T02:15:08;1.05;;;1.05;;
68072;SDS011;54862;51.502;7.446;2024-02-26T02:17:35;3.95;;;1.70;;
68072;SDS011;54862;51.502;7.446;2024-02-26T02:20:01;1.38;;;1.33;;
68072;SDS011;54862;51.502;7.446;2024-02-26T02:22:28;2.08;;;1.70;;
68072;SDS011;54862;51.502;7.446;2024-02-26T02:24:56;3.25;;;1.33;;
68072;SDS011;54862;51.502;7.446;2024-02-26T02:27:26;1.35;;;1.35;;
68072;SDS011;54862;51.502;7.446;2024-02-26T02:29:53;1.60;;;1.50;;
68072;SDS011;54862;51.502;7.446;2024-02-26T02:32:19;1.58;;;1.30;;
68072;SDS011;54862;51.502;7.446;2024-02-26T02:34:45;1.50;;;1.40;;
68072;SDS011;54862;51.502;7.446;2024-02-26T02:37:16;1.40;;;1.30;;
68072;SDS011;54862;51.502;7.446;2024-02-26T02:39:44;0.90;;;0.90;;
68072;SDS011;54862;51.502;7.446;2024-02-26T02:42:10;1.20;;;1.20;;
68072;SDS011;54862;51.502;7.446;2024-02-26T02:44:36;1.73;;;1.63;;
68072;SDS011;54862;51.502;7.446;2024-02-26T02:47:02;1.55;;;1.45;;
68072;SDS011;54862;51.502;7.446;2024-02-26T02:49:28;1.40;;;1.40;;
68072;SDS011;54862;51.502;7.446;2024-02-26T02:51:54;2.88;;;1.80;;
68072;SDS011;54862;51.502;7.446;2024-02-26T02:54:24;1.67;;;1.58;;
68072;SDS011;54862;51.502;7.446;2024-02-26T02:56:50;1.25;;;1.20;;
68072;SDS011;54862;51.502;7.446;2024-02-26T02:59:16;1.40;;;1.33;;
68072;SDS011;54862;51.502;7.446;2024-02-26T03:01:42;1.95;;;1.42;;
68072;SDS011;54862;51.502;7.446;2024-02-26T03:04:08;1.40;;;1.30;;
68072;SDS011;54862;51.502;7.446;2024-02-26T03:06:35;1.30;;;1.27;;
68072;SDS011;54862;51.502;7.446;2024-02-26T03:09:01;1.40;;;1.30;;
68072;SDS011;54862;51.502;7.446;2024-02-26T03:11:27;1.38;;;1.30;;
68072;SDS011;54862;51.502;7.446;2024-02-26T03:13:53;1.83;;;1.50;;
68072;SDS011;54862;51.502;7.446;2024-02-26T03:16:21;1.10;;;1.10;;
68072;SDS011;54862;51.502;7.446;2024-02-26T03:18:47;1.13;;;1.13;;
68072;SDS011;54862;51.502;7.446;2024-02-26T03:21:13;1.50;;;1.40;;
68072;SDS011;54862;51.502;7.446;2024-02-26T03:23:39;1.10;;;1.10;;
68072;SDS011;54862;51.502;7.446;2024-02-26T03:26:07;2.72;;;1.10;;
68072;SDS011;54862;51.502;7.446;2024-02-26T03:28:36;1.60;;;1.50;;
68072;SDS011;54862;51.502;7.446;2024-02-26T03:31:02;1.33;;;1.30;;
68072;SDS011;54862;51.502;7.446;2024-02-26T03:33:28;1.60;;;1.50;;
68072;SDS011;54862;51.502;7.446;2024-02-26T03:35:54;1.50;;;1.40;;
68072;SDS011;54862;51.502;7.446;2024-02-26T03:38:20;1.42;;;1.33;;
68072;SDS011;54862;51.502;7.446;2024-02-26T03:40:48;1.35;;;1.30;;
68072;SDS011;54862;51.502;7.446;2024-02-26T03:43:14;1.98;;;1.67;;
68072;SDS011;54862;51.502;7.446;2024-02-26T03:45:40;1.65;;;1.15;;
68072;SDS011;54862;51.502;7.446;2024-02-26T03:48:06;1.40;;;1.30;;
68072;SDS011;54862;51.502;7.446;2024-02-26T03:50:32;1.60;;;1.50;;
68072;SDS011;54862;51.502;7.446;2024-02-26T03:52:59;1.65;;;1.20;;
68072;SDS011;54862;51.502;7.446;2024-02-26T03:55:25;1.27;;;1.17;;
68072;SDS011;54862;51.502;7.446;2024-02-26T03:57:52;2.45;;;1.33;;
68072;SDS011;54862;51.502;7.446;2024-02-26T04:00:18;1.73;;;1.63;;
68072;SDS011;54862;51.502;7.446;2024-02-26T04:02:44;3.70;;;1.75;;
68072;SDS011;54862;51.502;7.446;2024-02-26T04:05:12;3.45;;;1.30;;
68072;SDS011;54862;51.502;7.446;2024-02-26T04:07:41;1.20;;;1.10;;
68072;SDS011;54862;51.502;7.446;2024-02-26T04:10:09;1.33;;;1.20;;
68072;SDS011;54862;51.502;7.446;2024-02-26T04:12:38;1.20;;;1.20;;
68072;SDS011;54862;51.502;7.446;2024-02-26T04:15:07;1.65;;;1.55;;
68072;SDS011;54862;51.502;7.446;2024-02-26T04:17:36;1.15;;;1.15;;
68072;SDS011;54862;51.502;7.446;2024-02-26T04:20:02;5.15;;;1.30;;
68072;SDS011;54862;51.502;7.446;2024-02-26T04:22:32;1.05;;;1.05;;
68072;SDS011;54862;51.502;7.446;2024-02-26T04:24:58;2.90;;;1.33;;
68072;SDS011;54862;51.502;7.446;2024-02-26T04:27:24;2.15;;;1.83;;
68072;SDS011;54862;51.502;7.446;2024-02-26T04:29:50;1.42;;;1.33;;
68072;SDS011;54862;51.502;7.446;2024-02-26T04:32:16;0.98;;;0.98;;
68072;SDS011;54862;51.502;7.446;2024-02-26T04:34:42;1.30;;;1.20;;
68072;SDS011;54862;51.502;7.446;2024-02-26T04:37:08;2.85;;;1.88;;
68072;SDS011;54862;51.502;7.446;2024-02-26T04:39:34;1.25;;;1.23;;
68072;SDS011;54862;51.502;7.446;2024-02-26T04:42:00;1.40;;;1.40;;
68072;SDS011;54862;51.502;7.446;2024-02-26T04:44:28;1.25;;;1.20;;
68072;SDS011;54862;51.502;7.446;2024-02-26T04:46:55;1.25;;;1.20;;
68072;SDS011;54862;51.502;7.446;2024-02-26T04:49:23;1.17;;;1.17;;
68072;SDS011;54862;51.502;7.446;2024-02-26T04:51:51;1.48;;;1.38;;
68072;SDS011;54862;51.502;7.446;2024-02-26T04:54:17;1.75;;;1.45;;
68072;SDS011;54862;51.502;7.446;2024-02-26T04:56:43;1.58;;;1.48;;
68072;SDS011;54862;51.502;7.446;2024-02-26T04:59:09;7.45;;;1.23;;
68072;SDS011;54862;51.502;7.446;2024-02-26T05:01:35;2.95;;;1.30;;
68072;SDS011;54862;51.502;7.446;2024-02-26T05:04:01;1.90;;;1.30;;
68072;SDS011;54862;51.502;7.446;2024-02-26T05:06:30;1.45;;;1.40;;
68072;SDS011;54862;51.502;7.446;2024-02-26T05:08:56;2.10;;;1.60;;
68072;SDS011;54862;51.502;7.446;2024-02-26T05:11:22;1.75;;;1.65;;
68072;SDS011;54862;51.502;7.446;2024-02-26T05:13:49;2.25;;;1.42;;
68072;SDS011;54862;51.502;7.446;2024-02-26T05:16:15;1.50;;;1.40;;
68072;SDS011;54862;51.502;7.446;2024-02-26T05:18:40;1.60;;;1.50;;
68072;SDS011;54862;51.502;7.446;2024-02-26T05:21:06;1.10;;;1.10;;
68072;SDS011;54862;51.502;7.446;2024-02-26T05:23:32;1.45;;;1.35;;
68072;SDS011;54862;51.502;7.446;2024-02-26T05:25:58;1.50;;;1.40;;
68072;SDS011;54862;51.502;7.446;2024-02-26T05:28:27;1.60;;;1.50;;
68072;SDS011;54862;51.502;7.446;2024-02-26T05:30:55;1.08;;;1.08;;
68072;SDS011;54862;51.502;7.446;2024-02-26T05:33:22;1.50;;;1.40;;
68072;SDS011;54862;51.502;7.446;2024-02-26T05:35:48;1.58;;;1.48;;
68072;SDS011;54862;51.502;7.446;2024-02-26T05:38:14;1.35;;;1.35;;
68072;SDS011;54862;51.502;7.446;2024-02-26T05:40:40;1.52;;;1.40;;
68072;SDS011;54862;51.502;7.446;2024-02-26T05:43:06;2.45;;;1.98;;
68072;SDS011;54862;51.502;7.446;2024-02-26T05:45:32;2.35;;;1.77;;
68072;SDS011;54862;51.502;7.446;2024-02-26T05:47:58;1.33;;;1.27;;
68072;SDS011;54862;51.502;7.446;2024-02-26T05:50:24;2.05;;;1.83;;
68072;SDS011;54862;51.502;7.446;2024-02-26T05:52:50;1.60;;;1.48;;
68072;SDS011;54862;51.502;7.446;2024-02-26T05:55:16;1.10;;;1.10;;
68072;SDS011;54862;51.502;7.446;2024-02-26T05:57:42;1.40;;;1.30;;
68072;SDS011;54862;51.502;7.446;2024-02-26T06:00:08;1.27;;;1.27;;
68072;SDS011;54862;51.502;7.446;2024-02-26T06:02:34;1.27;;;1.20;;
68072;SDS011;54862;51.502;7.446;2024-02-26T06:05:00;1.00;;;1.00;;
68072;SDS011;54862;51.502;7.446;2024-02-26T06:07:26;1.52;;;1.42;;
68072;SDS011;54862;51.502;7.446;2024-02-26T06:09:52;1.27;;;1.17;;
68072;SDS011;54862;51.502;7.446;2024-02-26T06:12:18;1.92;;;1.63;;
68072;SDS011;54862;51.502;7.446;2024-02-26T06:14:44;1.48;;;1.38;;
68072;SDS011;54862;51.502;7.446;2024-02-26T06:17:10;2.60;;;1.52;;
68072;SDS011;54862;51.502;7.446;2024-02-26T06:19:36;1.50;;;1.40;;
68072;SDS011;54862;51.502;7.446;2024-02-26T06:22:02;1.25;;;1.20;;
68072;SDS011;54862;51.502;7.446;2024-02-26T06:24:28;1.48;;;1.40;;
68072;SDS011;54862;51.502;7.446;2024-02-26T06:26:54;1.50;;;1.40;;
68072;SDS011;54862;51.502;7.446;2024-02-26T06:29:20;1.15;;;1.15;;
68072;SDS011;54862;51.502;7.446;2024-02-26T06:31:46;1.85;;;1.40;;
68072;SDS011;54862;51.502;7.446;2024-02-26T06:34:13;1.10;;;1.10;;
68072;SDS011;54862;51.502;7.446;2024-02-26T06:36:42;1.90;;;1.40;;
68072;SDS011;54862;51.502;7.446;2024-02-26T06:39:08;1.50;;;1.40;;
68072;SDS011;54862;51.502;7.446;2024-02-26T06:41:37;1.20;;;1.10;;
68072;SDS011;54862;51.502;7.446;2024-02-26T06:44:04;1.20;;;1.20;;
68072;SDS011;54862;51.502;7.446;2024-02-26T06:46:30;2.58;;;1.45;;
68072;SDS011;54862;51.502;7.446;2024-02-26T06:48:56;1.50;;;1.40;;
68072;SDS011;54862;51.502;7.446;2024-02-26T06:51:22;1.50;;;1.40;;
68072;SDS011;54862;51.502;7.446;2024-02-26T06:53:48;1.58;;;1.42;;
68072;SDS011;54862;51.502;7.446;2024-02-26T06:56:14;1.48;;;1.38;;
68072;SDS011;54862;51.502;7.446;2024-02-26T06:58:40;1.10;;;1.10;;
68072;SDS011;54862;51.502;7.446;2024-02-26T07:01:09;1.60;;;1.38;;
68072;SDS011;54862;51.502;7.446;2024-02-26T07:03:39;1.65;;;1.30;;
68072;SDS011;54862;51.502;7.446;2024-02-26T07:06:05;1.35;;;1.27;;
68072;SDS011;54862;51.502;7.446;2024-02-26T07:08:32;1.13;;;1.13;;
68072;SDS011;54862;51.502;7.446;2024-02-26T07:10:58;2.10;;;1.80;;
68072;SDS011;54862;51.502;7.446;2024-02-26T07:13:24;1.55;;;1.50;;
68072;SDS011;54862;51.502;7.446;2024-02-26T07:15:50;1.30;;;1.20;;
68072;SDS011;54862;51.502;7.446;2024-02-26T07:18:18;2.85;;;1.90;;
68072;SDS011;54862;51.502;7.446;2024-02-26T07:20:44;1.40;;;1.25;;
68072;SDS011;54862;51.502;7.446;2024-02-26T07:23:10;2.17;;;1.60;;
68072;SDS011;54862;51.502;7.446;2024-02-26T07:25:37;1.42;;;1.40;;
68072;SDS011;54862;51.502;7.446;2024-02-26T07:28:06;1.00;;;0.98;;
68072;SDS011;54862;51.502;7.446;2024-02-26T07:30:32;1.75;;;1.65;;
68072;SDS011;54862;51.502;7.446;2024-02-26T07:32:58;1.50;;;1.40;;
68072;SDS011;54862;51.502;7.446;2024-02-26T07:35:23;2.13;;;1.58;;
68072;SDS011;54862;51.502;7.446;2024-02-26T07:37:50;1.70;;;1.60;;
68072;SDS011;54862;51.502;7.446;2024-02-26T07:40:16;1.23;;;1.23;;
68072;SDS011;54862;51.502;7.446;2024-02-26T07:42:42;1.73;;;1.60;;
68072;SDS011;54862;51.502;7.446;2024-02-26T07:45:09;1.13;;;1.13;;
68072;SDS011;54862;51.502;7.446;2024-02-26T07:47:35;1.85;;;1.60;;
68072;SDS011;54862;51.502;7.446;2024-02-26T07:50:05;1.25;;;1.17;;
68072;SDS011;54862;51.502;7.446;2024-02-26T07:52:31;3.28;;;1.60;;
68072;SDS011;54862;51.502;7.446;2024-02-26T07:54:58;2.10;;;1.60;;
68072;SDS011;54862;51.502;7.446;2024-02-26T07:57:24;1.42;;;1.33;;
68072;SDS011;54862;51.502;7.446;2024-02-26T07:59:50;1.30;;;1.30;;
68072;SDS011;54862;51.502;7.446;2024-02-26T08:02:16;1.45;;;1.35;;
68072;SDS011;54862;51.502;7.446;2024-02-26T08:04:45;1.00;;;1.00;;
68072;SDS011;54862;51.502;7.446;2024-02-26T08:07:11;1.45;;;1.40;;
68072;SDS011;54862;51.502;7.446;2024-02-26T08:09:37;1.60;;;1.50;;
68072;SDS011;54862;51.502;7.446;2024-02-26T08:12:03;1.63;;;1.52;;
68072;SDS011;54862;51.502;7.446;2024-02-26T08:14:29;1.52;;;1.42;;
68072;SDS011;54862;51.502;7.446;2024-02-26T08:16:57;1.45;;;1.38;;
68072;SDS011;54862;51.502;7.446;2024-02-26T08:19:23;1.52;;;1.40;;
68072;SDS011;54862;51.502;7.446;2024-02-26T08:21:49;1.40;;;1.30;;
68072;SDS011;54862;51.502;7.446;2024-02-26T08:24:15;2.33;;;1.83;;
68072;SDS011;54862;51.502;7.446;2024-02-26T08:26:41;1.55;;;1.45;;
68072;SDS011;54862;51.502;7.446;2024-02-26T08:29:12;3.35;;;1.48;;
68072;SDS011;54862;51.502;7.446;2024-02-26T08:31:38;1.50;;;1.40;;
68072;SDS011;54862;51.502;7.446;2024-02-26T08:34:04;1.58;;;1.48;;
68072;SDS011;54862;51.502;7.446;2024-02-26T08:36:32;1.30;;;1.25;;
68072;SDS011;54862;51.502;7.446;2024-02-26T08:38:59;1.67;;;1.52;;
68072;SDS011;54862;51.502;7.446;2024-02-26T08:41:27;3.40;;;2.15;;
68072;SDS011;54862;51.502;7.446;2024-02-26T08:43:54;1.92;;;1.80;;
68072;SDS011;54862;51.502;7.446;2024-02-26T08:46:23;1.83;;;1.48;;
68072;SDS011;54862;51.502;7.446;2024-02-26T08:48:49;1.60;;;1.50;;
68072;SDS011;54862;51.502;7.446;2024-02-26T08:51:15;1.95;;;1.40;;
68072;SDS011;54862;51.502;7.446;2024-02-26T08:53:43;2.75;;;1.98;;
68072;SDS011;54862;51.502;7.446;2024-02-26T08:56:11;3.75;;;2.28;;
68072;SDS011;54862;51.502;7.446;2024-02-26T08:58:42;1.88;;;1.48;;
68072;SDS011;54862;51.502;7.446;2024-02-26T09:01:08;1.73;;;1.40;;
68072;SDS011;54862;51.502;7.446;2024-02-26T09:03:34;1.80;;;1.70;;
68072;SDS011;54862;51.502;7.446;2024-02-26T09:06:00;3.35;;;2.15;;
68072;SDS011;54862;51.502;7.446;2024-02-26T09:08:27;1.52;;;1.42;;
68072;SDS011;54862;51.502;7.446;2024-02-26T09:10:55;2.83;;;1.85;;
68072;SDS011;54862;51.502;7.446;2024-02-26T09:13:21;2.33;;;1.70;;
68072;SDS011;54862;51.502;7.446;2024-02-26T09:15:47;2.60;;;1.67;;
68072;SDS011;54862;51.502;7.446;2024-02-26T09:18:13;1.98;;;1.45;;
68072;SDS011;54862;51.502;7.446;2024-02-26T09:20:39;2.22;;;1.60;;
68072;SDS011;54862;51.502;7.446;2024-02-26T09:23:05;3.45;;;1.70;;
68072;SDS011;54862;51.502;7.446;2024-02-26T09:25:31;1.42;;;1.40;;
68072;SDS011;54862;51.502;7.446;2024-02-26T09:28:01;3.08;;;1.90;;
68072;SDS011;54862;51.502;7.446;2024-02-26T09:30:27;2.90;;;2.03;;
68072;SDS011;54862;51.502;7.446;2024-02-26T09:32:53;2.08;;;1.60;;
68072;SDS011;54862;51.502;7.446;2024-02-26T09:35:19;5.22;;;1.88;;
68072;SDS011;54862;51.502;7.446;2024-02-26T09:37:46;1.80;;;1.48;;
68072;SDS011;54862;51.502;7.446;2024-02-26T09:40:13;1.35;;;1.35;;
68072;SDS011;54862;51.502;7.446;2024-02-26T09:42:43;1.73;;;1.63;;
68072;SDS011;54862;51.502;7.446;2024-02-26T09:45:10;1.48;;;1.38;;
68072;SDS011;54862;51.502;7.446;2024-02-26T09:47:37;1.80;;;1.65;;
68072;SDS011;54862;51.502;7.446;2024-02-26T09:50:05;2.15;;;1.77;;
68072;SDS011;54862;51.502;7.446;2024-02-26T09:52:32;2.17;;;1.38;;
68072;SDS011;54862;51.502;7.446;2024-02-26T09:54:59;2.58;;;2.08;;
68072;SDS011;54862;51.502;7.446;2024-02-26T09:57:25;1.90;;;1.80;;
68072;SDS011;54862;51.502;7.446;2024-02-26T09:59:53;1.65;;;1.55;;
68072;SDS011;54862;51.502;7.446;2024-02-26T10:02:19;3.53;;;2.28;;
68072;SDS011;54862;51.502;7.446;2024-02-26T10:04:46;7.10;;;1.77;;
68072;SDS011;54862;51.502;7.446;2024-02-26T10:07:14;1.85;;;1.75;;
68072;SDS011;54862;51.502;7.446;2024-02-26T10:09:41;3.30;;;1.80;;
68072;SDS011;54862;51.502;7.446;2024-02-26T10:12:07;3.08;;;1.92;;
68072;SDS011;54862;51.502;7.446;2024-02-26T10:14:36;2.97;;;2.17;;
68072;SDS011;54862;51.502;7.446;2024-02-26T10:17:07;5.22;;;2.65;;
68072;SDS011;54862;51.502;7.446;2024-02-26T10:19:36;1.92;;;1.73;;
68072;SDS011;54862;51.502;7.446;2024-02-26T10:22:02;2.55;;;1.90;;
68072;SDS011;54862;51.502;7.446;2024-02-26T10:24:29;4.53;;;2.10;;
68072;SDS011;54862;51.502;7.446;2024-02-26T10:26:56;3.28;;;1.88;;
68072;SDS011;54862;51.502;7.446;2024-02-26T10:29:23;2.03;;;1.80;;
68072;SDS011;54862;51.502;7.446;2024-02-26T10:31:53;3.80;;;1.90;;
68072;SDS011;54862;51.502;7.446;2024-02-26T10:34:19;3.13;;;2.50;;
68072;SDS011;54862;51.502;7.446;2024-02-26T10:36:45;1.60;;;1.50;;
68072;SDS011;54862;51.502;7.446;2024-02-26T10:39:12;3.95;;;2.22;;
68072;SDS011;54862;51.502;7.446;2024-02-26T10:41:42;2.05;;;1.88;;
68072;SDS011;54862;51.502;7.446;2024-02-26T10:44:08;2.47;;;1.85;;
68072;SDS011;54862;51.502;7.446;2024-02-26T10:46:36;1.95;;;1.83;;
68072;SDS011;54862;51.502;7.446;2024-02-26T10:49:02;1.83;;;1.70;;
68072;SDS011;54862;51.502;7.446;2024-02-26T10:51:31;2.60;;;2.10;;
68072;SDS011;54862;51.502;7.446;2024-02-26T10:53:58;2.97;;;1.90;;
68072;SDS011;54862;51.502;7.446;2024-02-26T10:56:29;3.70;;;2.13;;
68072;SDS011;54862;51.502;7.446;2024-02-26T10:58:58;2.55;;;2.33;;
68072;SDS011;54862;51.502;7.446;2024-02-26T11:01:27;1.40;;;1.33;;
68072;SDS011;54862;51.502;7.446;2024-02-26T11:03:56;4.10;;;2.13;;
68072;SDS011;54862;51.502;7.446;2024-02-26T11:06:23;4.13;;;2.55;;
68072;SDS011;54862;51.502;7.446;2024-02-26T11:08:54;4.68;;;2.58;;
68072;SDS011;54862;51.502;7.446;2024-02-26T11:11:20;5.22;;;2.50;;
68072;SDS011;54862;51.502;7.446;2024-02-26T11:13:48;3.60;;;2.47;;
68072;SDS011;54862;51.502;7.446;2024-02-26T11:16:19;5.88;;;2.17;;
68072;SDS011;54862;51.502;7.446;2024-02-26T11:18:48;6.28;;;3.65;;
68072;SDS011;54862;51.502;7.446;2024-02-26T11:21:18;6.05;;;2.10;;
68072;SDS011;54862;51.502;7.446;2024-02-26T11:23:48;3.75;;;1.92;;
68072;SDS011;54862;51.502;7.446;2024-02-26T11:26:15;3.03;;;2.20;;
68072;SDS011;54862;51.502;7.446;2024-02-26T11:28:41;4.65;;;2.65;;
68072;SDS011;54862;51.502;7.446;2024-02-26T11:31:07;3.42;;;2.45;;
68072;SDS011;54862;51.502;7.446;2024-02-26T11:33:37;3.40;;;2.08;;
68072;SDS011;54862;51.502;7.446;2024-02-26T11:36:07;4.47;;;2.85;;
68072;SDS011;54862;51.502;7.446;2024-02-26T11:38:34;4.13;;;2.53;;
68072;SDS011;54862;51.502;7.446;2024-02-26T11:41:01;5.28;;;2.22;;
68072;SDS011;54862;51.502;7.446;2024-02-26T11:46:25;2.28;;;2.08;;
68072;SDS011;54862;51.502;7.446;2024-02-26T11:48:51;3.85;;;2.60;;
68072;SDS011;54862;51.502;7.446;2024-02-26T11:51:24;3.55;;;2.40;;
68072;SDS011;54862;51.502;7.446;2024-02-26T11:53:50;2.10;;;1.88;;
68072;SDS011;54862;51.502;7.446;2024-02-26T11:58:45;4.20;;;2.45;;
68072;SDS011;54862;51.502;7.446;2024-02-26T12:03:56;4.72;;;2.42;;
68072;SDS011;54862;51.502;7.446;2024-02-26T12:06:22;4.32;;;2.25;;
68072;SDS011;54862;51.502;7.446;2024-02-26T12:08:50;3.22;;;2.25;;
68072;SDS011;54862;51.502;7.446;2024-02-26T12:11:16;5.28;;;2.78;;
68072;SDS011;54862;51.502;7.446;2024-02-26T12:13:45;5.50;;;2.42;;
68072;SDS011;54862;51.502;7.446;2024-02-26T12:16:21;7.40;;;3.03;;
68072;SDS011;54862;51.502;7.446;2024-02-26T12:19:00;4.82;;;3.13;;
68072;SDS011;54862;51.502;7.446;2024-02-26T12:21:26;8.70;;;3.38;;
68072;SDS011;54862;51.502;7.446;2024-02-26T12:23:54;2.95;;;2.38;;
68072;SDS011;54862;51.502;7.446;2024-02-26T12:26:20;6.22;;;3.35;;
68072;SDS011;54862;51.502;7.446;2024-02-26T12:28:47;2.72;;;2.22;;
68072;SDS011;54862;51.502;7.446;2024-02-26T12:31:13;8.32;;;3.25;;
68072;SDS011;54862;51.502;7.446;2024-02-26T12:33:39;6.43;;;3.30;;
68072;SDS011;54862;51.502;7.446;2024-02-26T12:36:05;5.43;;;2.60;;
68072;SDS011;54862;51.502;7.446;2024-02-26T12:38:32;4.28;;;2.78;;
68072;SDS011;54862;51.502;7.446;2024-02-26T12:40:59;6.38;;;2.90;;
68072;SDS011;54862;51.502;7.446;2024-02-26T12:43:25;4.53;;;2.13;;
68072;SDS011;54862;51.502;7.446;2024-02-26T12:45:51;3.67;;;2.40;;
68072;SDS011;54862;51.502;7.446;2024-02-26T12:48:17;3.90;;;2.80;;
68072;SDS011;54862;51.502;7.446;2024-02-26T12:50:45;3.22;;;2.50;;
68072;SDS011;54862;51.502;7.446;2024-02-26T12:53:12;4.05;;;2.40;;
68072;SDS011;54862;51.502;7.446;2024-02-26T12:55:38;3.20;;;2.38;;
68072;SDS011;54862;51.502;7.446;2024-02-26T12:58:05;3.88;;;2.30;;
68072;SDS011;54862;51.502;7.446;2024-02-26T13:00:31;3.38;;;2.10;;
68072;SDS011;54862;51.502;7.446;2024-02-26T13:03:00;7.15;;;2.55;;
68072;SDS011;54862;51.502;7.446;2024-02-26T13:05:28;1.83;;;1.65;;
68072;SDS011;54862;51.502;7.446;2024-02-26T13:07:54;6.05;;;2.72;;
68072;SDS011;54862;51.502;7.446;2024-02-26T13:10:23;4.32;;;2.40;;
68072;SDS011;54862;51.502;7.446;2024-02-26T13:12:50;3.33;;;2.40;;
68072;SDS011;54862;51.502;7.446;2024-02-26T13:15:17;5.13;;;2.28;;
68072;SDS011;54862;51.502;7.446;2024-02-26T13:17:43;3.72;;;1.77;;
68072;SDS011;54862;51.502;7.446;2024-02-26T13:20:09;3.58;;;1.75;;
68072;SDS011;54862;51.502;7.446;2024-02-26T13:22:38;1.90;;;1.75;;
68072;SDS011;54862;51.502;7.446;2024-02-26T13:25:04;2.33;;;2.00;;
68072;SDS011;54862;51.502;7.446;2024-02-26T13:27:33;2.42;;;2.08;;
68072;SDS011;54862;51.502;7.446;2024-02-26T13:32:34;4.57;;;2.55;;
68072;SDS011;54862;51.502;7.446;2024-02-26T13:35:12;3.35;;;2.05;;
68072;SDS011;54862;51.502;7.446;2024-02-26T13:37:39;3.80;;;2.28;;
68072;SDS011;54862;51.502;7.446;2024-02-26T13:40:05;3.88;;;2.55;;
68072;SDS011;54862;51.502;7.446;2024-02-26T13:42:32;2.40;;;1.92;;
68072;SDS011;54862;51.502;7.446;2024-02-26T13:44:58;3.88;;;2.13;;
68072;SDS011;54862;51.502;7.446;2024-02-26T13:47:24;6.20;;;3.45;;
68072;SDS011;54862;51.502;7.446;2024-02-26T13:49:50;2.10;;;1.77;;
68072;SDS011;54862;51.502;7.446;2024-02-26T13:52:16;3.30;;;2.25;;
68072;SDS011;54862;51.502;7.446;2024-02-26T13:54:42;2.85;;;2.20;;
68072;SDS011;54862;51.502;7.446;2024-02-26T13:57:08;2.60;;;1.90;;
68072;SDS011;54862;51.502;7.446;2024-02-26T13:59:34;6.25;;;2.75;;
68072;SDS011;54862;51.502;7.446;2024-02-26T14:02:00;4.50;;;2.55;;
68072;SDS011;54862;51.502;7.446;2024-02-26T14:04:26;5.22;;;2.00;;
68072;SDS011;54862;51.502;7.446;2024-02-26T14:06:52;3.85;;;2.40;;
68072;SDS011;54862;51.502;7.446;2024-02-26T14:09:18;4.07;;;2.05;;
68072;SDS011;54862;51.502;7.446;2024-02-26T14:11:47;4.93;;;2.47;;
68072;SDS011;54862;51.502;7.446;2024-02-26T14:14:13;2.65;;;2.10;;
68072;SDS011;54862;51.502;7.446;2024-02-26T14:16:40;6.05;;;2.60;;
68072;SDS011;54862;51.502;7.446;2024-02-26T14:19:08;3.25;;;2.30;;
68072;SDS011;54862;51.502;7.446;2024-02-26T14:21:34;4.28;;;2.45;;
68072;SDS011;54862;51.502;7.446;2024-02-26T14:24:00;4.57;;;2.45;;
68072;SDS011;54862;51.502;7.446;2024-02-26T14:26:29;3.80;;;2.72;;
68072;SDS011;54862;51.502;7.446;2024-02-26T14:28:57;4.57;;;2.42;;
68072;SDS011;54862;51.502;7.446;2024-02-26T14:31:26;2.67;;;2.38;;
68072;SDS011;54862;51.502;7.446;2024-02-26T14:33:54;9.52;;;2.53;;
68072;SDS011;54862;51.502;7.446;2024-02-26T14:36:21;5.93;;;3.40;;
68072;SDS011;54862;51.502;7.446;2024-02-26T14:38:47;6.80;;;3.13;;
68072;SDS011;54862;51.502;7.446;2024-02-26T14:41:14;4.18;;;2.42;;
68072;SDS011;54862;51.502;7.446;2024-02-26T14:43:40;3.67;;;2.10;;
68072;SDS011;54862;51.502;7.446;2024-02-26T14:46:07;2.80;;;1.90;;
68072;SDS011;54862;51.502;7.446;2024-02-26T14:48:33;4.05;;;2.40;;
68072;SDS011;54862;51.502;7.446;2024-02-26T14:50:59;3.72;;;2.20;;
68072;SDS011;54862;51.502;7.446;2024-02-26T14:53:27;3.90;;;2.50;;
68072;SDS011;54862;51.502;7.446;2024-02-26T14:55:57;1.63;;;1.50;;